createdAt,value
2023-03-05T00:02:13.888Z,98505.29
2023-03-05T00:04:42.661Z,98506.67
2023-03-05T00:07:12.713Z,98504.15
2023-03-05T00:09:41.584Z,98502.73
2023-03-05T00:12:10.285Z,98501.54
2023-03-05T00:14:38.838Z,98498.59
2023-03-05T00:17:07.450Z,98499.39
2023-03-05T00:19:36.060Z,98502.38
2023-03-05T00:22:05.005Z,98504.94
2023-03-05T00:24:33.917Z,98502.09
2023-03-05T00:27:03.093Z,98502.79
2023-03-05T00:29:31.912Z,98504.66
2023-03-05T00:32:01.436Z,98505.98
2023-03-05T00:34:30.348Z,98509.38
2023-03-05T00:36:59.167Z,98507.26
2023-03-05T00:39:28.043Z,98504.20
2023-03-05T00:41:56.998Z,98505.60
2023-03-05T00:44:25.885Z,98504.20
2023-03-05T00:46:54.757Z,98504.13
2023-03-05T00:49:23.950Z,98508.05
2023-03-05T00:51:52.706Z,98507.17
2023-03-05T00:54:22.442Z,98507.89
2023-03-05T00:56:51.755Z,98509.70
2023-03-05T00:59:20.970Z,98508.72
2023-03-05T01:01:49.896Z,98505.95
2023-03-05T01:04:18.554Z,98507.61
2023-03-05T01:06:47.179Z,98506.34
2023-03-05T01:09:15.908Z,98500.48
2023-03-05T01:11:44.981Z,98496.77
2023-03-05T01:14:14.674Z,98492.27
2023-03-05T01:16:43.489Z,98492.02
2023-03-05T01:19:13.563Z,98490.25
2023-03-05T01:21:43.578Z,98489.92
2023-03-05T01:24:12.572Z,98486.28
2023-03-05T01:26:41.502Z,98484.84
2023-03-05T01:29:10.260Z,98486.21
2023-03-05T01:31:39.802Z,98481.08
2023-03-05T01:34:08.649Z,98480.88
2023-03-05T01:36:40.483Z,98478.17
2023-03-05T01:39:09.478Z,98477.64
2023-03-05T01:41:38.638Z,98477.23
2023-03-05T01:44:07.719Z,98476.63
2023-03-05T01:46:39.758Z,98479.12
2023-03-05T01:49:11.656Z,98480.42
2023-03-05T01:51:48.872Z,98478.91
2023-03-05T01:54:21.452Z,98478.06
2023-03-05T01:56:53.060Z,98477.77
2023-03-05T01:59:24.140Z,98477.70
2023-03-05T02:01:56.724Z,98478.95
2023-03-05T02:04:33.196Z,98480.98
2023-03-05T02:07:03.098Z,98485.64
2023-03-05T02:09:32.006Z,98485.36
2023-03-05T02:12:00.861Z,98484.96
2023-03-05T02:14:30.123Z,98482.00
2023-03-05T02:16:59.470Z,98477.28
2023-03-05T02:19:28.973Z,98476.67
2023-03-05T02:21:57.995Z,98477.08
2023-03-05T02:24:37.012Z,98477.19
2023-03-05T02:27:06.765Z,98472.89
2023-03-05T02:29:39.887Z,98471.46
2023-03-05T02:32:09.999Z,98474.06
2023-03-05T02:34:39.003Z,98470.91
2023-03-05T02:37:09.808Z,98472.17
2023-03-05T02:39:40.071Z,98473.05
2023-03-05T02:42:08.930Z,98468.48
2023-03-05T02:44:40.107Z,98463.77
2023-03-05T02:47:08.738Z,98466.10
2023-03-05T02:49:37.751Z,98466.90
2023-03-05T02:52:07.176Z,98463.70
2023-03-05T02:54:35.933Z,98461.36
2023-03-05T02:57:04.702Z,98455.13
2023-03-05T02:59:33.630Z,98458.13
2023-03-05T03:02:02.726Z,98457.52
2023-03-05T03:04:31.731Z,98456.98
2023-03-05T03:07:00.612Z,98454.62
2023-03-05T03:09:29.827Z,98452.89
2023-03-05T03:11:58.905Z,98447.13
2023-03-05T03:14:28.176Z,98454.89
2023-03-05T03:16:57.111Z,98452.48
2023-03-05T03:19:26.058Z,98454.02
2023-03-05T03:21:55.605Z,98450.29
2023-03-05T03:24:24.523Z,98448.55
2023-03-05T03:26:53.589Z,98452.34
2023-03-05T03:29:22.632Z,98451.98
2023-03-05T03:31:52.197Z,98451.61
2023-03-05T03:34:21.866Z,98453.39
2023-03-05T03:36:53.472Z,98454.23
2023-03-05T03:39:24.002Z,98452.57
2023-03-05T03:41:54.556Z,98455.28
2023-03-05T03:44:23.369Z,98453.28
2023-03-05T03:46:54.706Z,98447.92
2023-03-05T03:49:26.213Z,98451.54
2023-03-05T03:51:56.009Z,98451.75
2023-03-05T03:54:25.232Z,98452.54
2023-03-05T03:56:54.143Z,98444.73
2023-03-05T03:59:23.060Z,98448.41
2023-03-05T04:01:53.447Z,98453.43
2023-03-05T04:04:22.642Z,98449.09
2023-03-05T04:06:51.500Z,98450.54
2023-03-05T04:09:20.539Z,98452.84
2023-03-05T04:11:49.457Z,98457.19
2023-03-05T04:14:18.421Z,98462.48
2023-03-05T04:16:47.437Z,98461.70
2023-03-05T04:19:16.308Z,98462.79
2023-03-05T04:21:45.272Z,98460.80
2023-03-05T04:24:14.296Z,98460.38
2023-03-05T04:26:43.484Z,98454.34
2023-03-05T04:29:12.313Z,98450.71
2023-03-05T04:31:41.123Z,98456.73
2023-03-05T04:34:10.100Z,98454.67
2023-03-05T04:36:38.857Z,98453.41
2023-03-05T04:39:08.089Z,98456.58
2023-03-05T04:41:37.158Z,98454.65
2023-03-05T04:44:06.651Z,98456.73
2023-03-05T04:46:35.590Z,98458.77
2023-03-05T04:49:04.700Z,98457.30
2023-03-05T04:51:33.582Z,98455.91
2023-03-05T04:54:02.526Z,98455.80
2023-03-05T04:56:32.575Z,98457.69
2023-03-05T04:59:01.979Z,98458.15
2023-03-05T05:01:31.110Z,98457.70
2023-03-05T05:04:00.876Z,98461.50
2023-03-05T05:06:30.320Z,98454.89
2023-03-05T05:08:59.223Z,98453.10
2023-03-05T05:11:28.637Z,98454.34
2023-03-05T05:13:57.666Z,98450.85
2023-03-05T05:16:26.907Z,98454.73
2023-03-05T05:18:55.953Z,98453.27
2023-03-05T05:21:24.821Z,98450.09
2023-03-05T05:23:53.836Z,98452.18
2023-03-05T05:26:22.805Z,98452.56
2023-03-05T05:28:52.275Z,98446.69
2023-03-05T05:31:21.282Z,98445.80
2023-03-05T05:33:50.363Z,98442.27
2023-03-05T05:36:19.901Z,98441.22
2023-03-05T05:38:49.540Z,98442.15
2023-03-05T05:41:19.914Z,98439.98
2023-03-05T05:43:49.190Z,98438.92
2023-03-05T05:46:20.929Z,98442.12
2023-03-05T05:48:50.020Z,98443.81
2023-03-05T05:51:22.743Z,98444.42
2023-03-05T05:53:52.441Z,98452.69
2023-03-05T05:56:22.115Z,98455.49
2023-03-05T05:58:51.359Z,98455.19
2023-03-05T06:01:22.375Z,98459.11
2023-03-05T06:03:52.585Z,98459.28
2023-03-05T06:06:24.694Z,98457.29
2023-03-05T06:08:55.166Z,98461.44
2023-03-05T06:11:24.599Z,98458.55
2023-03-05T06:13:53.928Z,98460.23
2023-03-05T06:16:25.358Z,98461.36
2023-03-05T06:18:54.643Z,98462.83
2023-03-05T06:21:24.721Z,98463.28
2023-03-05T06:23:53.810Z,98456.97
2023-03-05T06:26:23.444Z,98462.35
2023-03-05T06:28:53.065Z,98466.55
2023-03-05T06:31:27.794Z,98468.33
2023-03-05T06:34:01.485Z,98468.54
2023-03-05T06:36:30.881Z,98473.17
2023-03-05T06:38:59.849Z,98476.57
2023-03-05T06:41:31.257Z,98473.98
2023-03-05T06:44:02.752Z,98473.79
2023-03-05T06:46:37.939Z,98470.70
2023-03-05T06:49:09.024Z,98471.97
2023-03-05T06:51:40.322Z,98471.41
2023-03-05T06:54:13.365Z,98463.89
2023-03-05T06:56:45.405Z,98465.14
2023-03-05T06:59:16.598Z,98463.48
2023-03-05T07:01:46.263Z,98466.89
2023-03-05T07:04:16.689Z,98466.59
2023-03-05T07:06:46.353Z,98470.60
2023-03-05T07:09:16.962Z,98466.77
2023-03-05T07:11:46.189Z,98462.13
2023-03-05T07:14:15.377Z,98458.14
2023-03-05T07:16:45.295Z,98460.06
2023-03-05T07:19:15.163Z,98461.25
2023-03-05T07:21:45.148Z,98458.50
2023-03-05T07:24:14.893Z,98460.49
2023-03-05T07:26:43.945Z,98458.23
2023-03-05T07:29:18.971Z,98459.90
2023-03-05T07:31:59.133Z,98460.82
2023-03-05T07:34:31.347Z,98442.30
2023-03-05T07:37:00.979Z,98459.45
2023-03-05T07:39:30.744Z,98456.90
2023-03-05T07:42:00.534Z,98453.96
2023-03-05T07:44:32.132Z,98451.77
2023-03-05T07:47:01.127Z,98452.90
2023-03-05T07:49:30.161Z,98457.78
2023-03-05T07:51:59.242Z,98455.70
2023-03-05T07:54:28.122Z,98455.92
2023-03-05T07:56:57.038Z,98458.69
2023-03-05T07:59:26.008Z,98459.68
2023-03-05T08:01:55.004Z,98461.64
2023-03-05T08:04:24.880Z,98464.01
2023-03-05T08:06:54.140Z,98465.13
2023-03-05T08:09:23.181Z,98464.98
2023-03-05T08:11:52.141Z,98463.08
2023-03-05T08:14:21.495Z,98463.11
2023-03-05T08:16:54.084Z,98458.44
2023-03-05T08:19:23.922Z,98455.62
2023-03-05T08:21:55.014Z,98454.79
2023-03-05T08:24:29.986Z,98452.90
2023-03-05T08:26:59.763Z,98449.70
2023-03-05T08:29:29.116Z,98446.55
2023-03-05T08:31:57.834Z,98445.75
2023-03-05T08:34:27.217Z,98443.66
2023-03-05T08:36:56.764Z,98442.38
2023-03-05T08:39:26.145Z,98443.55
2023-03-05T08:41:55.477Z,98446.90
2023-03-05T08:44:25.494Z,98441.52
2023-03-05T08:46:55.271Z,98440.27
2023-03-05T08:49:24.294Z,98440.20
2023-03-05T08:51:53.602Z,98432.54
2023-03-05T08:54:22.898Z,98430.83
2023-03-05T08:56:52.398Z,98422.71
2023-03-05T08:59:21.608Z,98423.48
2023-03-05T09:01:51.690Z,98425.95
2023-03-05T09:04:21.639Z,98421.85
2023-03-05T09:06:51.198Z,98419.98
2023-03-05T09:09:23.847Z,98421.15
2023-03-05T09:11:53.959Z,98421.55
2023-03-05T09:14:23.811Z,98421.54
2023-03-05T09:16:52.972Z,98418.65
2023-03-05T09:19:22.579Z,98420.04
2023-03-05T09:21:51.841Z,98413.41
2023-03-05T09:24:21.296Z,98408.77
2023-03-05T09:26:51.474Z,98410.64
2023-03-05T09:29:22.031Z,98412.07
2023-03-05T09:31:52.573Z,98407.33
2023-03-05T09:34:22.975Z,98403.63
2023-03-05T09:36:52.206Z,98399.22
2023-03-05T09:39:22.124Z,98399.02
2023-03-05T09:42:28.701Z,98396.87
2023-03-05T09:45:11.279Z,98396.33
2023-03-05T09:47:49.968Z,98392.81
2023-03-05T09:50:24.040Z,98394.67
2023-03-05T09:53:19.552Z,98394.04
2023-03-05T09:56:14.853Z,98393.26
2023-03-05T09:58:51.488Z,98392.72
2023-03-05T10:01:40.697Z,98393.16
2023-03-05T10:04:19.933Z,98394.82
2023-03-05T10:07:07.860Z,98395.80
2023-03-05T10:10:31.464Z,98396.79
2023-03-05T10:13:06.333Z,98392.10
2023-03-05T10:15:52.705Z,98390.70
2023-03-05T10:18:42.827Z,98390.05
2023-03-05T10:21:22.951Z,98386.95
2023-03-05T10:24:04.130Z,98387.15
2023-03-05T10:26:51.801Z,98374.43
2023-03-05T10:29:38.535Z,98384.67
2023-03-05T10:32:10.988Z,98381.03
2023-03-05T10:34:49.804Z,98381.34
2023-03-05T10:37:37.307Z,98378.19
2023-03-05T10:40:30.252Z,98379.10
2023-03-05T10:43:36.800Z,98371.57
2023-03-05T10:46:07.550Z,98370.98
2023-03-05T10:48:43.567Z,98371.10
2023-03-05T10:51:34.766Z,98365.45
2023-03-05T10:54:30.158Z,98361.42
2023-03-05T10:57:05.342Z,98356.98
2023-03-05T10:59:34.394Z,98358.01
2023-03-05T11:02:09.414Z,98357.18
2023-03-05T11:04:40.806Z,98353.33
2023-03-05T11:07:16.153Z,98349.89
2023-03-05T11:10:01.458Z,98350.55
2023-03-05T11:12:37.299Z,98348.27
2023-03-05T11:15:14.934Z,98348.64
2023-03-05T11:17:45.406Z,98348.17
2023-03-05T11:20:29.646Z,98343.73
2023-03-05T11:23:11.203Z,98340.94
2023-03-05T11:26:02.986Z,98333.23
2023-03-05T11:28:36.976Z,98332.64
2023-03-05T11:31:25.324Z,98330.85
2023-03-05T11:33:56.737Z,98330.17
2023-03-05T11:36:36.315Z,98320.42
2023-03-05T11:39:09.136Z,98317.82
2023-03-05T11:42:03.845Z,98312.90
2023-03-05T11:44:42.428Z,98306.18
2023-03-05T11:47:38.109Z,98299.56
2023-03-05T11:50:24.690Z,98293.67
2023-03-05T11:53:19.460Z,98289.04
2023-03-05T11:56:13.172Z,98292.22
2023-03-05T11:58:52.140Z,98287.09
2023-03-05T12:01:25.532Z,98284.66
2023-03-05T12:03:56.550Z,98280.36
2023-03-05T12:06:43.712Z,98278.16
2023-03-05T12:09:42.869Z,98274.83
2023-03-05T12:12:24.899Z,98267.31
2023-03-05T12:15:01.367Z,98258.62
2023-03-05T12:18:08.045Z,98260.73
2023-03-05T12:20:50.000Z,98255.77
2023-03-05T12:23:22.236Z,98255.60
2023-03-05T12:26:01.990Z,98250.20
2023-03-05T12:28:37.816Z,98246.30
2023-03-05T12:31:10.292Z,98246.77
2023-03-05T12:33:44.697Z,98243.25
2023-03-05T12:36:23.276Z,98238.12
2023-03-05T12:38:54.441Z,98228.95
2023-03-05T12:41:24.963Z,98220.75
2023-03-05T12:44:08.395Z,98216.29
2023-03-05T12:46:39.665Z,98220.46
2023-03-05T12:49:39.645Z,98215.25
2023-03-05T12:52:26.898Z,98218.95
2023-03-05T12:55:20.762Z,98219.09
2023-03-05T12:58:14.722Z,98219.64
2023-03-05T13:01:08.559Z,98215.15
2023-03-05T13:03:54.029Z,98216.16
2023-03-05T13:06:27.003Z,98211.40
2023-03-05T13:08:58.245Z,98214.53
2023-03-05T13:11:31.848Z,98208.94
2023-03-05T13:14:03.485Z,98204.39
2023-03-05T13:16:40.145Z,98202.14
2023-03-05T13:19:18.820Z,98198.42
2023-03-05T13:22:01.338Z,98201.23
2023-03-05T13:24:33.217Z,98196.48
2023-03-05T13:27:02.683Z,98191.84
2023-03-05T13:29:32.037Z,98188.66
2023-03-05T13:32:04.970Z,98185.60
2023-03-05T13:34:47.358Z,98189.63
2023-03-05T13:37:25.180Z,98187.42
2023-03-05T13:40:16.069Z,98185.24
2023-03-05T13:42:45.743Z,98183.19
2023-03-05T13:45:32.360Z,98181.42
2023-03-05T13:48:04.812Z,98175.95
2023-03-05T13:50:40.302Z,98176.02
2023-03-05T13:53:28.773Z,98173.29
2023-03-05T13:56:03.610Z,98171.39
2023-03-05T13:58:48.296Z,98169.83
2023-03-05T14:01:29.808Z,98170.52
2023-03-05T14:04:16.537Z,98167.02
2023-03-05T14:06:59.696Z,98167.29
2023-03-05T14:09:43.650Z,98161.20
2023-03-05T14:12:22.573Z,98161.25
2023-03-05T14:14:52.157Z,98158.73
2023-03-05T14:17:44.254Z,98159.35
2023-03-05T14:20:14.238Z,98157.31
2023-03-05T14:22:51.434Z,98165.73
2023-03-05T14:25:34.947Z,98156.06
2023-03-05T14:28:08.790Z,98157.06
2023-03-05T14:30:38.530Z,98151.65
2023-03-05T14:33:08.275Z,98150.61
2023-03-05T14:35:39.045Z,98148.44
2023-03-05T14:38:20.669Z,98151.98
2023-03-05T14:40:50.777Z,98152.38
2023-03-05T14:43:19.930Z,98153.83
2023-03-05T14:45:49.090Z,98154.33
2023-03-05T14:48:19.710Z,98147.63
2023-03-05T14:50:57.344Z,98142.92
2023-03-05T14:53:30.608Z,98142.72
2023-03-05T14:55:59.988Z,98144.83
2023-03-05T14:58:35.316Z,98143.52
2023-03-05T15:01:04.703Z,98145.59
2023-03-05T15:03:34.180Z,98143.56
2023-03-05T15:06:04.169Z,98141.27
2023-03-05T15:08:35.209Z,98134.48
2023-03-05T15:11:04.789Z,98136.20
2023-03-05T15:13:36.968Z,98135.63
2023-03-05T15:16:08.708Z,98137.28
2023-03-05T15:18:38.971Z,98136.33
2023-03-05T15:21:12.132Z,98134.71
2023-03-05T15:23:41.971Z,98135.38
2023-03-05T15:26:15.448Z,98136.20
2023-03-05T15:28:44.939Z,98136.83
2023-03-05T15:31:18.876Z,98140.89
2023-03-05T15:33:48.404Z,98144.40
2023-03-05T15:36:18.225Z,98146.29
2023-03-05T15:38:48.822Z,98150.13
2023-03-05T15:41:19.772Z,98152.98
2023-03-05T15:43:54.977Z,98151.99
2023-03-05T15:46:25.974Z,98157.30
2023-03-05T15:48:57.260Z,98157.95
2023-03-05T15:51:28.591Z,98159.41
2023-03-05T15:53:59.497Z,98159.08
2023-03-05T15:56:29.644Z,98153.80
2023-03-05T15:58:59.718Z,98154.88
2023-03-05T16:01:29.972Z,98153.88
2023-03-05T16:04:03.037Z,98150.05
2023-03-05T16:06:35.190Z,98155.41
2023-03-05T16:09:07.125Z,98148.55
2023-03-05T16:11:41.726Z,98155.33
2023-03-05T16:14:12.594Z,98156.95
2023-03-05T16:16:43.958Z,98155.35
2023-03-05T16:19:18.689Z,98155.96
2023-03-05T16:21:49.484Z,98155.02
2023-03-05T16:24:19.243Z,98156.11
2023-03-05T16:26:48.916Z,98155.08
2023-03-05T16:29:18.293Z,98158.30
2023-03-05T16:31:48.488Z,98158.23
2023-03-05T16:34:19.846Z,98157.70
2023-03-05T16:36:53.650Z,98156.13
2023-03-05T16:39:24.229Z,98157.30
2023-03-05T16:41:55.479Z,98163.40
2023-03-05T16:44:25.849Z,98164.14
2023-03-05T16:46:58.127Z,98162.71
2023-03-05T16:49:28.281Z,98167.43
2023-03-05T16:52:01.373Z,98167.44
2023-03-05T16:54:37.823Z,98166.80
2023-03-05T16:57:09.747Z,98169.98
2023-03-05T16:59:40.468Z,98169.90
2023-03-05T17:02:10.753Z,98172.27
2023-03-05T17:04:41.232Z,98177.25
2023-03-05T17:07:12.551Z,98176.11
2023-03-05T17:09:43.151Z,98178.71
2023-03-05T17:12:13.338Z,98180.36
2023-03-05T17:14:44.100Z,98186.02
2023-03-05T17:17:14.023Z,98188.55
2023-03-05T17:19:45.736Z,98193.04
2023-03-05T17:22:17.781Z,98199.42
2023-03-05T17:24:49.006Z,98199.70
2023-03-05T17:27:23.492Z,98206.94
2023-03-05T17:29:56.241Z,98211.14
2023-03-05T17:32:27.773Z,98209.85
2023-03-05T17:34:59.817Z,98209.15
2023-03-05T17:37:31.003Z,98212.44
2023-03-05T17:40:01.300Z,98219.66
2023-03-05T17:42:31.433Z,98212.34
2023-03-05T17:45:02.208Z,98212.48
2023-03-05T17:47:33.981Z,98217.77
2023-03-05T17:50:06.489Z,98222.18
2023-03-05T17:52:40.107Z,98222.71
2023-03-05T17:55:14.011Z,98225.57
2023-03-05T17:57:44.926Z,98229.10
2023-03-05T18:00:21.216Z,98231.30
2023-03-05T18:02:53.064Z,98232.67
2023-03-05T18:05:24.967Z,98235.30
2023-03-05T18:07:56.325Z,98238.35
2023-03-05T18:10:29.142Z,98239.27
2023-03-05T18:13:00.690Z,98242.38
2023-03-05T18:15:32.388Z,98241.91
2023-03-05T18:18:03.541Z,98243.04
2023-03-05T18:20:38.490Z,98245.24
2023-03-05T18:23:08.712Z,98244.47
2023-03-05T18:25:38.470Z,98240.84
2023-03-05T18:28:11.277Z,98246.02
2023-03-05T18:30:43.985Z,98246.48
2023-03-05T18:33:26.072Z,98245.24
2023-03-05T18:35:59.550Z,98252.38
2023-03-05T18:38:32.158Z,98249.51
2023-03-05T18:41:04.695Z,98248.49
2023-03-05T18:43:37.697Z,98250.31
2023-03-05T18:46:09.553Z,98250.39
2023-03-05T18:48:39.523Z,98257.41
2023-03-05T18:51:20.685Z,98253.91
2023-03-05T18:53:55.490Z,98254.23
2023-03-05T18:56:27.574Z,98254.64
2023-03-05T18:58:58.936Z,98258.55
2023-03-05T19:01:30.222Z,98260.23
2023-03-05T19:04:02.665Z,98264.42
2023-03-05T19:06:36.611Z,98266.27
2023-03-05T19:09:40.689Z,98264.26
2023-03-05T19:12:12.384Z,98270.29
2023-03-05T19:14:43.410Z,98271.23
2023-03-05T19:17:13.813Z,98271.14
2023-03-05T19:19:45.300Z,98274.73
2023-03-05T19:22:15.444Z,98271.02
2023-03-05T19:24:47.477Z,98268.11
2023-03-05T19:27:20.396Z,98270.30
2023-03-05T19:29:51.405Z,98268.33
2023-03-05T19:32:25.465Z,98271.70
2023-03-05T19:34:58.872Z,98274.82
2023-03-05T19:37:29.565Z,98279.45
2023-03-05T19:39:59.960Z,98279.77
2023-03-05T19:42:32.340Z,98281.36
2023-03-05T19:45:04.765Z,98280.34
2023-03-05T19:47:36.454Z,98282.22
2023-03-05T19:50:09.249Z,98283.69
2023-03-05T19:52:40.160Z,98290.61
2023-03-05T19:55:11.589Z,98293.91
2023-03-05T19:57:43.135Z,98294.00
2023-03-05T20:00:14.244Z,98296.36
2023-03-05T20:02:45.125Z,98297.17
2023-03-05T20:05:15.052Z,98300.05
2023-03-05T20:07:45.033Z,98301.45
2023-03-05T20:10:14.553Z,98301.52
2023-03-05T20:12:49.606Z,98305.71
2023-03-05T20:15:24.195Z,98309.23
2023-03-05T20:17:56.030Z,98307.64
2023-03-05T20:20:26.157Z,98310.09
2023-03-05T20:22:56.029Z,98308.00
2023-03-05T20:25:26.120Z,98304.33
2023-03-05T20:27:55.399Z,98307.13
2023-03-05T20:30:25.353Z,98308.05
2023-03-05T20:32:55.176Z,98301.55
2023-03-05T20:35:25.654Z,98302.17
2023-03-05T20:38:23.640Z,98300.47
2023-03-05T20:40:56.773Z,98301.98
2023-03-05T20:43:30.101Z,98300.61
2023-03-05T20:46:01.907Z,98301.71
2023-03-05T20:48:34.879Z,98298.77
2023-03-05T20:51:20.331Z,98296.30
2023-03-05T20:53:52.745Z,98293.96
2023-03-05T20:56:26.465Z,98293.61
2023-03-05T20:59:03.723Z,98293.53
2023-03-05T21:01:39.701Z,98291.70
2023-03-05T21:04:13.250Z,98288.38
2023-03-05T21:06:45.786Z,98283.52
2023-03-05T21:09:21.033Z,98281.88
2023-03-05T21:11:59.504Z,98281.71
2023-03-05T21:14:39.970Z,98282.56
2023-03-05T21:17:13.123Z,98283.39
2023-03-05T21:19:56.486Z,98281.83
2023-03-05T21:22:34.207Z,98288.38
2023-03-05T21:25:24.535Z,98290.57
2023-03-05T21:28:09.583Z,98289.41
2023-03-05T21:30:46.681Z,98285.93
2023-03-05T21:33:32.982Z,98286.89
2023-03-05T21:36:05.981Z,98287.83
2023-03-05T21:38:36.629Z,98289.89
2023-03-05T21:41:07.353Z,98289.48
2023-03-05T21:43:39.556Z,98290.89
2023-03-05T21:46:14.754Z,98292.58
2023-03-05T21:48:44.970Z,98290.27
2023-03-05T21:51:42.953Z,98295.28
2023-03-05T21:54:15.524Z,98295.80
2023-03-05T21:56:47.043Z,98298.27
2023-03-05T21:59:17.868Z,98302.95
2023-03-05T22:01:49.932Z,98305.58
2023-03-05T22:04:22.264Z,98304.48
2023-03-05T22:06:52.682Z,98307.58
2023-03-05T22:09:22.378Z,98305.86
2023-03-05T22:11:51.533Z,98306.77
2023-03-05T22:14:21.875Z,98306.35
2023-03-05T22:16:55.793Z,98305.55
2023-03-05T22:19:24.950Z,98307.25
2023-03-05T22:21:54.366Z,98303.38
2023-03-05T22:24:28.833Z,98297.42
2023-03-05T22:26:58.634Z,98296.61
2023-03-05T22:29:29.336Z,98295.10
2023-03-05T22:31:59.434Z,98294.45
2023-03-05T22:34:29.653Z,98292.73
2023-03-05T22:36:59.117Z,98293.79
2023-03-05T22:39:28.464Z,98291.65
2023-03-05T22:41:57.522Z,98289.81
2023-03-05T22:44:26.652Z,98284.48
2023-03-05T22:46:55.982Z,98280.42
2023-03-05T22:49:26.036Z,98277.83
2023-03-05T22:51:55.391Z,98274.79
2023-03-05T22:54:24.762Z,98271.17
2023-03-05T22:56:53.613Z,98268.96
2023-03-05T22:59:22.841Z,98264.86
2023-03-05T23:01:51.968Z,98271.57
2023-03-05T23:04:53.779Z,98267.45
2023-03-05T23:07:29.856Z,98266.22
2023-03-05T23:10:12.784Z,98263.53
2023-03-05T23:12:47.104Z,98266.98
2023-03-05T23:15:23.164Z,98266.35
2023-03-05T23:17:54.506Z,98268.86
2023-03-05T23:20:28.241Z,98273.06
2023-03-05T23:22:58.967Z,98272.06
2023-03-05T23:25:31.422Z,98269.33
2023-03-05T23:28:01.282Z,98268.94
2023-03-05T23:30:37.828Z,98268.78
2023-03-05T23:33:14.510Z,98265.93
2023-03-05T23:35:53.117Z,98265.05
2023-03-05T23:38:23.723Z,98266.46
2023-03-05T23:40:56.053Z,98268.43
2023-03-05T23:43:27.497Z,98265.36
2023-03-05T23:45:58.121Z,98260.86
2023-03-05T23:48:29.729Z,98257.54
2023-03-05T23:50:59.016Z,98255.85
2023-03-05T23:53:31.888Z,98258.33
2023-03-05T23:56:01.557Z,98258.19
2023-03-05T23:58:30.760Z,98261.48
